createdAt,value
2019-02-07T00:00:29.619Z,1.60
2019-02-07T00:02:58.725Z,1.60
2019-02-07T00:05:27.834Z,1.60
2019-02-07T00:07:57.168Z,1.50
2019-02-07T00:10:26.557Z,1.50
2019-02-07T00:12:55.969Z,1.50
2019-02-07T00:15:25.144Z,1.60
2019-02-07T00:17:54.283Z,1.60
2019-02-07T00:20:23.611Z,1.50
2019-02-07T00:22:52.760Z,1.60
2019-02-07T00:25:22.123Z,1.60
2019-02-07T00:27:51.831Z,1.40
2019-02-07T00:30:22.740Z,1.60
2019-02-07T00:32:52.199Z,1.50
2019-02-07T00:35:21.560Z,1.50
2019-02-07T00:37:50.919Z,1.50
2019-02-07T00:40:21.292Z,1.50
2019-02-07T00:42:50.389Z,1.50
2019-02-07T00:45:20.167Z,1.50
2019-02-07T00:47:49.636Z,1.40
2019-02-07T00:50:19.610Z,1.30
2019-02-07T00:52:48.701Z,1.40
2019-02-07T00:55:20.272Z,1.30
2019-02-07T00:57:49.402Z,1.40
2019-02-07T01:00:21.644Z,1.40
2019-02-07T01:02:51.252Z,1.30
2019-02-07T01:05:22.069Z,1.30
2019-02-07T01:07:51.712Z,1.20
2019-02-07T01:10:27.655Z,1.20
2019-02-07T01:12:57.016Z,1.20
2019-02-07T01:15:27.400Z,1.30
2019-02-07T01:17:56.614Z,1.20
2019-02-07T01:20:25.695Z,1.30
2019-02-07T01:22:55.615Z,1.20
2019-02-07T01:25:25.899Z,1.30
2019-02-07T01:27:55.662Z,1.20
2019-02-07T01:30:28.191Z,1.20
2019-02-07T01:32:57.361Z,1.30
2019-02-07T01:35:26.475Z,1.20
2019-02-07T01:37:55.748Z,1.20
2019-02-07T01:40:25.145Z,1.20
2019-02-07T01:42:55.794Z,1.20
2019-02-07T01:45:25.752Z,1.10
2019-02-07T01:47:55.392Z,1.10
2019-02-07T01:50:25.553Z,1.10
2019-02-07T01:52:55.010Z,1.10
2019-02-07T01:55:24.164Z,1.10
2019-02-07T01:57:53.581Z,0.90
2019-02-07T02:00:22.697Z,1.00
2019-02-07T02:02:52.134Z,1.00
2019-02-07T02:05:21.291Z,1.10
2019-02-07T02:07:51.517Z,1.20
2019-02-07T02:10:27.850Z,1.10
2019-02-07T02:12:57.257Z,1.10
2019-02-07T02:15:26.763Z,1.10
2019-02-07T02:17:55.848Z,1.10
2019-02-07T02:20:25.617Z,1.10
2019-02-07T02:22:56.343Z,1.20
2019-02-07T02:25:25.702Z,1.20
2019-02-07T02:27:55.115Z,1.10
2019-02-07T02:30:26.734Z,1.20
2019-02-07T02:32:56.083Z,1.10
2019-02-07T02:35:25.396Z,1.10
2019-02-07T02:37:54.746Z,1.10
2019-02-07T02:40:23.829Z,1.20
2019-02-07T02:42:53.162Z,1.20
2019-02-07T02:45:23.413Z,1.20
2019-02-07T02:47:52.941Z,1.30
2019-02-07T02:50:22.218Z,1.30
2019-02-07T02:52:51.916Z,1.30
2019-02-07T02:55:37.770Z,1.20
2019-02-07T02:58:07.046Z,1.30
2019-02-07T03:00:46.650Z,1.30
2019-02-07T03:03:32.569Z,1.30
2019-02-07T03:06:09.121Z,1.40
2019-02-07T03:08:56.355Z,1.30
2019-02-07T03:11:27.362Z,1.30
2019-02-07T03:14:13.212Z,1.40
2019-02-07T03:17:02.188Z,1.40
2019-02-07T03:19:35.963Z,1.30
2019-02-07T03:22:06.822Z,1.40
2019-02-07T03:24:53.528Z,1.40
2019-02-07T03:27:40.572Z,1.40
2019-02-07T03:30:26.358Z,1.40
2019-02-07T03:33:08.820Z,1.40
2019-02-07T03:35:45.877Z,1.30
2019-02-07T03:38:34.472Z,1.30
2019-02-07T03:41:08.124Z,1.40
2019-02-07T03:43:56.696Z,1.40
2019-02-07T03:46:27.444Z,1.40
2019-02-07T03:49:13.267Z,1.40
2019-02-07T03:51:49.456Z,1.40
2019-02-07T03:54:20.206Z,1.50
2019-02-07T03:56:59.447Z,1.40
2019-02-07T03:59:42.597Z,1.40
2019-02-07T04:02:19.430Z,1.40
2019-02-07T04:04:50.416Z,1.40
2019-02-07T04:07:21.141Z,1.40
2019-02-07T04:09:57.809Z,1.40
2019-02-07T04:12:40.802Z,1.40
2019-02-07T04:15:11.547Z,1.40
2019-02-07T04:18:00.399Z,1.40
2019-02-07T04:20:31.364Z,1.40
2019-02-07T04:23:05.044Z,1.30
2019-02-07T04:25:36.540Z,1.40
2019-02-07T04:28:25.358Z,1.40
2019-02-07T04:31:01.885Z,1.50
2019-02-07T04:33:32.881Z,1.50
2019-02-07T04:36:03.588Z,1.60
2019-02-07T04:38:50.711Z,1.50
2019-02-07T04:41:33.438Z,1.50
2019-02-07T04:44:20.212Z,1.60
2019-02-07T04:46:59.701Z,1.70
2019-02-07T04:49:42.241Z,1.60
2019-02-07T04:52:25.149Z,1.70
2019-02-07T04:55:11.857Z,1.70
2019-02-07T04:57:46.198Z,1.80
2019-02-07T05:00:18.765Z,1.70
2019-02-07T05:03:04.598Z,1.90
2019-02-07T05:05:35.642Z,1.80
2019-02-07T05:08:15.237Z,1.80
2019-02-07T05:11:02.002Z,1.80
2019-02-07T05:13:32.835Z,1.80
2019-02-07T05:16:18.964Z,1.70
2019-02-07T05:18:49.945Z,1.70
2019-02-07T05:21:38.413Z,1.80
2019-02-07T05:24:14.958Z,1.80
2019-02-07T05:27:01.511Z,1.70
2019-02-07T05:29:41.511Z,1.70
2019-02-07T05:32:21.888Z,1.60
2019-02-07T05:35:08.043Z,1.70
2019-02-07T05:37:38.798Z,1.80
2019-02-07T05:40:14.946Z,1.70
2019-02-07T05:42:48.882Z,1.70
2019-02-07T05:45:19.592Z,1.80
2019-02-07T05:47:59.379Z,1.80
2019-02-07T05:50:30.086Z,1.80
2019-02-07T05:53:06.320Z,1.80
2019-02-07T05:55:42.736Z,1.80
2019-02-07T05:58:28.338Z,1.70
2019-02-07T06:01:08.525Z,1.80
2019-02-07T06:03:54.064Z,1.90
2019-02-07T06:06:27.971Z,1.90
2019-02-07T06:09:02.235Z,1.80
2019-02-07T06:11:44.721Z,1.80
2019-02-07T06:14:21.464Z,1.80
2019-02-07T06:17:02.815Z,1.80
2019-02-07T06:19:48.974Z,1.80
2019-02-07T06:22:22.444Z,1.90
2019-02-07T06:24:59.444Z,1.90
2019-02-07T06:27:33.151Z,2.00
2019-02-07T06:30:20.342Z,1.90
2019-02-07T06:32:57.026Z,1.90
2019-02-07T06:35:39.488Z,2.00
2019-02-07T06:38:10.245Z,1.90
2019-02-07T06:40:41.316Z,1.90
2019-02-07T06:43:18.093Z,1.90
2019-02-07T06:45:48.876Z,2.00
2019-02-07T06:48:19.642Z,2.00
2019-02-07T06:50:50.634Z,2.00
2019-02-07T06:53:23.920Z,2.00
2019-02-07T06:56:06.290Z,2.00
2019-02-07T06:58:52.124Z,2.10
2019-02-07T07:01:39.184Z,2.20
2019-02-07T07:04:25.093Z,2.20
2019-02-07T07:07:04.695Z,2.20
2019-02-07T07:09:35.401Z,2.40
2019-02-07T07:12:22.605Z,2.30
2019-02-07T07:15:09.167Z,2.40
2019-02-07T07:17:40.111Z,2.50
2019-02-07T07:20:17.591Z,2.50
2019-02-07T07:23:06.458Z,2.60
2019-02-07T07:25:53.539Z,2.60
2019-02-07T07:28:27.269Z,2.70
2019-02-07T07:31:03.730Z,2.80
2019-02-07T07:33:37.587Z,2.80
2019-02-07T07:36:23.390Z,2.80
2019-02-07T07:38:57.191Z,3.00
2019-02-07T07:41:43.018Z,3.00
2019-02-07T07:44:19.830Z,3.10
2019-02-07T07:46:50.800Z,3.10
2019-02-07T07:49:21.674Z,3.10
2019-02-07T07:52:01.175Z,3.00
2019-02-07T07:54:48.474Z,3.10
2019-02-07T07:57:22.527Z,3.10
2019-02-07T07:59:53.495Z,3.00
2019-02-07T08:02:30.203Z,3.10
2019-02-07T08:05:06.730Z,3.10
2019-02-07T08:07:37.440Z,3.00
2019-02-07T08:10:27.568Z,3.10
2019-02-07T08:12:58.327Z,3.20
2019-02-07T08:15:37.977Z,3.20
2019-02-07T08:18:08.767Z,3.10
2019-02-07T08:20:39.560Z,3.10
2019-02-07T08:23:13.945Z,3.20
2019-02-07T08:25:59.296Z,3.10
2019-02-07T08:28:36.534Z,3.30
2019-02-07T08:31:08.040Z,3.30
2019-02-07T08:33:41.221Z,3.50
2019-02-07T08:36:15.246Z,3.40
2019-02-07T08:38:58.469Z,3.50
2019-02-07T08:41:29.382Z,3.60
2019-02-07T08:44:02.841Z,3.60
2019-02-07T08:46:39.394Z,3.70
2019-02-07T08:49:13.040Z,3.70
2019-02-07T08:51:49.556Z,3.90
2019-02-07T08:54:26.186Z,3.80
2019-02-07T08:56:59.349Z,4.00
2019-02-07T08:59:31.961Z,3.70
2019-02-07T09:02:03.062Z,4.00
2019-02-07T09:04:36.558Z,4.00
2019-02-07T09:07:09.985Z,4.00
2019-02-07T09:09:57.011Z,4.00
2019-02-07T09:12:34.169Z,4.00
2019-02-07T09:15:16.633Z,3.80
2019-02-07T09:18:09.852Z,3.80
2019-02-07T09:20:51.557Z,3.90
2019-02-07T09:23:22.354Z,3.90
2019-02-07T09:25:53.419Z,3.90
2019-02-07T09:28:29.845Z,4.10
2019-02-07T09:31:03.209Z,3.90
2019-02-07T09:33:50.413Z,3.90
2019-02-07T09:36:38.830Z,3.90
2019-02-07T09:39:26.045Z,3.80
2019-02-07T09:41:56.868Z,4.00
2019-02-07T09:44:47.240Z,4.00
2019-02-07T09:47:18.241Z,4.00
2019-02-07T09:50:04.953Z,4.00
2019-02-07T09:52:47.722Z,3.90
2019-02-07T09:55:30.781Z,3.90
2019-02-07T09:58:01.758Z,4.10
2019-02-07T10:00:50.605Z,4.20
2019-02-07T10:03:30.168Z,4.40
2019-02-07T10:06:00.928Z,4.40
2019-02-07T10:08:47.694Z,4.40
2019-02-07T10:11:24.105Z,4.40
2019-02-07T10:13:55.198Z,4.40
2019-02-07T10:16:32.537Z,4.40
2019-02-07T10:19:03.602Z,4.40
2019-02-07T10:21:37.289Z,4.40
2019-02-07T10:24:08.096Z,4.30
2019-02-07T10:26:41.822Z,4.40
2019-02-07T10:29:12.908Z,4.50
2019-02-07T10:31:58.581Z,4.40
2019-02-07T10:34:45.097Z,4.20
2019-02-07T10:37:18.526Z,4.40
2019-02-07T10:39:51.968Z,4.50
2019-02-07T10:42:22.713Z,4.50
2019-02-07T10:44:56.153Z,4.60
2019-02-07T10:47:39.066Z,4.40
2019-02-07T10:50:28.402Z,4.50
2019-02-07T10:53:05.400Z,4.60
2019-02-07T10:55:54.073Z,4.60
2019-02-07T10:58:25.671Z,4.60
2019-02-07T11:00:56.432Z,4.50
2019-02-07T11:03:28.717Z,4.30
2019-02-07T11:06:17.562Z,4.20
2019-02-07T11:08:51.130Z,4.00
2019-02-07T11:11:22.103Z,4.10
2019-02-07T11:13:55.580Z,4.20
2019-02-07T11:16:32.532Z,4.30
2019-02-07T11:19:21.267Z,4.20
2019-02-07T11:21:57.996Z,4.30
2019-02-07T11:24:45.511Z,4.10
2019-02-07T11:27:20.612Z,4.00
2019-02-07T11:29:57.363Z,4.10
2019-02-07T11:32:28.528Z,4.20
2019-02-07T11:35:01.982Z,4.30
2019-02-07T11:37:38.695Z,4.20
2019-02-07T11:40:22.778Z,4.30
2019-02-07T11:42:59.374Z,4.20
2019-02-07T11:45:42.163Z,4.10
2019-02-07T11:48:15.781Z,4.20
2019-02-07T11:50:52.625Z,4.20
2019-02-07T11:53:26.036Z,4.20
2019-02-07T11:55:59.797Z,4.20
2019-02-07T11:58:47.017Z,4.10
2019-02-07T12:01:29.571Z,4.00
2019-02-07T12:04:16.936Z,4.00
2019-02-07T12:07:03.166Z,4.10
2019-02-07T12:09:46.116Z,4.10
2019-02-07T12:12:16.872Z,4.30
2019-02-07T12:14:49.365Z,4.50
2019-02-07T12:17:37.978Z,4.60
2019-02-07T12:20:16.150Z,4.50
2019-02-07T12:23:03.032Z,4.70
2019-02-07T12:25:33.856Z,4.70
2019-02-07T12:28:13.508Z,4.70
2019-02-07T12:30:44.325Z,4.60
2019-02-07T12:33:21.006Z,4.60
2019-02-07T12:36:00.858Z,4.60
2019-02-07T12:38:43.678Z,4.60
2019-02-07T12:41:14.722Z,4.70
2019-02-07T12:43:58.157Z,4.90
2019-02-07T12:46:34.661Z,4.80
2019-02-07T12:49:08.086Z,4.70
2019-02-07T12:51:53.761Z,5.00
2019-02-07T12:54:24.502Z,5.00
2019-02-07T12:56:55.239Z,4.90
2019-02-07T12:59:35.302Z,4.80
2019-02-07T13:02:12.096Z,4.90
2019-02-07T13:04:49.671Z,4.70
2019-02-07T13:07:36.399Z,4.60
2019-02-07T13:10:13.297Z,4.40
2019-02-07T13:12:47.389Z,4.40
2019-02-07T13:15:34.449Z,4.20
2019-02-07T13:18:11.148Z,4.10
2019-02-07T13:20:58.136Z,4.00
2019-02-07T13:23:43.913Z,4.10
2019-02-07T13:26:14.639Z,4.20
2019-02-07T13:29:03.238Z,4.20
2019-02-07T13:31:49.794Z,4.20
2019-02-07T13:34:37.180Z,4.20
2019-02-07T13:37:07.947Z,4.30
2019-02-07T13:39:47.636Z,4.40
2019-02-07T13:42:18.630Z,4.20
2019-02-07T13:45:01.626Z,4.30
2019-02-07T13:47:48.623Z,4.60
2019-02-07T13:50:19.935Z,4.50
2019-02-07T13:53:06.865Z,4.60
2019-02-07T13:55:50.452Z,4.60
2019-02-07T13:58:24.201Z,4.40
2019-02-07T14:00:55.197Z,4.50
2019-02-07T14:03:29.053Z,4.40
2019-02-07T14:06:00.053Z,4.50
2019-02-07T14:08:47.455Z,4.50
2019-02-07T14:11:18.498Z,4.50
2019-02-07T14:14:04.628Z,4.50
2019-02-07T14:16:40.781Z,4.50
2019-02-07T14:19:11.512Z,4.40
2019-02-07T14:21:42.529Z,4.40
2019-02-07T14:24:16.141Z,4.30
2019-02-07T14:26:49.982Z,4.40
2019-02-07T14:29:23.576Z,4.50
2019-02-07T14:31:57.601Z,4.40
2019-02-07T14:34:43.649Z,4.40
2019-02-07T14:37:17.103Z,4.50
2019-02-07T14:39:50.977Z,4.30
2019-02-07T14:42:21.956Z,4.40
2019-02-07T14:44:52.692Z,4.40
2019-02-07T14:47:22.029Z,4.40
2019-02-07T14:49:51.434Z,4.50
2019-02-07T14:52:20.573Z,4.50
2019-02-07T14:54:49.689Z,4.60
2019-02-07T14:57:19.058Z,4.60
2019-02-07T14:59:48.163Z,4.70
2019-02-07T15:02:17.850Z,4.70
2019-02-07T15:04:46.931Z,4.70
2019-02-07T15:07:16.150Z,4.70
2019-02-07T15:09:45.535Z,4.70
2019-02-07T15:12:14.733Z,4.70
2019-02-07T15:14:43.850Z,4.70
2019-02-07T15:17:13.419Z,4.50
2019-02-07T15:19:42.559Z,4.60
2019-02-07T15:22:11.689Z,4.60
2019-02-07T15:24:40.767Z,4.70
2019-02-07T15:27:09.882Z,4.70
2019-02-07T15:29:39.223Z,4.70
2019-02-07T15:32:08.658Z,4.80
2019-02-07T15:34:37.740Z,4.80
2019-02-07T15:37:06.966Z,4.90
2019-02-07T15:39:36.321Z,4.90
2019-02-07T15:42:05.450Z,4.90
2019-02-07T15:44:34.867Z,4.90
2019-02-07T15:47:05.003Z,4.90
2019-02-07T15:49:34.385Z,5.00
2019-02-07T15:52:03.767Z,5.00
2019-02-07T15:54:32.917Z,4.90
2019-02-07T15:57:02.311Z,4.90
2019-02-07T15:59:33.024Z,4.70
2019-02-07T16:02:04.049Z,4.70
2019-02-07T16:04:33.198Z,4.60
2019-02-07T16:07:02.372Z,4.60
2019-02-07T16:09:31.456Z,4.50
2019-02-07T16:12:00.590Z,4.60
2019-02-07T16:14:30.745Z,4.50
2019-02-07T16:17:00.158Z,4.50
2019-02-07T16:19:29.492Z,4.50
2019-02-07T16:21:58.580Z,4.60
2019-02-07T16:24:27.721Z,4.50
2019-02-07T16:26:56.841Z,4.50
2019-02-07T16:29:25.965Z,4.50
2019-02-07T16:31:55.650Z,4.50
2019-02-07T16:34:25.202Z,4.50
2019-02-07T16:36:54.496Z,4.50
2019-02-07T16:39:23.932Z,4.40
2019-02-07T16:41:53.254Z,4.30
2019-02-07T16:44:22.405Z,4.30
2019-02-07T16:46:54.411Z,4.30
2019-02-07T16:49:22.534Z,4.30
2019-02-07T16:51:51.873Z,4.20
2019-02-07T16:54:20.976Z,4.30
2019-02-07T16:56:50.380Z,4.30
2019-02-07T16:59:19.717Z,4.30
2019-02-07T17:01:48.967Z,4.30
2019-02-07T17:04:18.415Z,4.30
2019-02-07T17:06:47.840Z,4.30
2019-02-07T17:09:18.603Z,4.40
2019-02-07T17:11:48.037Z,4.30
2019-02-07T17:14:17.153Z,4.40
2019-02-07T17:16:47.093Z,4.30
2019-02-07T17:19:16.180Z,4.40
2019-02-07T17:21:45.286Z,4.30
2019-02-07T17:24:14.422Z,4.40
2019-02-07T17:26:43.538Z,4.30
2019-02-07T17:29:12.629Z,4.40
2019-02-07T17:31:42.299Z,4.30
2019-02-07T17:34:11.398Z,4.40
2019-02-07T17:36:40.520Z,4.30
2019-02-07T17:39:09.775Z,4.40
2019-02-07T17:41:38.808Z,4.30
2019-02-07T17:44:08.773Z,4.20
2019-02-07T17:46:38.510Z,4.10
2019-02-07T17:49:07.593Z,4.20
2019-02-07T17:51:36.689Z,4.20
2019-02-07T17:54:05.854Z,4.10
2019-02-07T17:56:34.938Z,4.10
2019-02-07T17:59:06.188Z,4.10
2019-02-07T18:01:35.451Z,4.10
2019-02-07T18:04:04.808Z,4.10
2019-02-07T18:06:33.896Z,4.10
2019-02-07T18:09:04.861Z,4.20
2019-02-07T18:11:33.940Z,4.20
2019-02-07T18:14:03.048Z,4.20
2019-02-07T18:16:32.360Z,4.20
2019-02-07T18:19:01.724Z,4.20
2019-02-07T18:21:34.282Z,4.10
2019-02-07T18:24:02.191Z,4.20
2019-02-07T18:26:31.309Z,4.20
2019-02-07T18:29:00.456Z,4.20
2019-02-07T18:31:29.761Z,4.20
2019-02-07T18:33:58.875Z,4.10
2019-02-07T18:36:28.495Z,4.10
2019-02-07T18:38:57.908Z,4.10
2019-02-07T18:41:26.997Z,4.10
2019-02-07T18:43:56.076Z,4.00
2019-02-07T18:46:25.231Z,4.10
2019-02-07T18:48:57.100Z,4.10
2019-02-07T18:51:26.195Z,4.10
2019-02-07T18:53:55.312Z,4.20
2019-02-07T18:56:24.827Z,4.10
2019-02-07T18:58:53.876Z,4.10
2019-02-07T19:01:23.006Z,4.10
2019-02-07T19:03:52.122Z,4.00
2019-02-07T19:06:21.282Z,4.00
2019-02-07T19:08:50.620Z,3.90
2019-02-07T19:11:19.782Z,4.00
2019-02-07T19:13:48.893Z,3.90
2019-02-07T19:16:18.016Z,3.80
2019-02-07T19:18:47.586Z,3.80
2019-02-07T19:21:16.676Z,3.80
2019-02-07T19:23:45.857Z,3.90
2019-02-07T19:26:14.982Z,3.80
2019-02-07T19:28:44.075Z,3.80
2019-02-07T19:31:13.168Z,3.80
2019-02-07T19:33:42.583Z,3.70
2019-02-07T19:36:11.968Z,3.70
2019-02-07T19:38:41.332Z,3.70
2019-02-07T19:41:10.466Z,3.70
2019-02-07T19:43:39.573Z,3.70
2019-02-07T19:46:08.980Z,3.60
2019-02-07T19:48:38.330Z,3.50
2019-02-07T19:51:07.441Z,3.60
2019-02-07T19:53:36.546Z,3.50
2019-02-07T19:56:06.127Z,3.50
2019-02-07T19:58:35.274Z,3.50
2019-02-07T20:01:04.812Z,3.40
2019-02-07T20:03:34.171Z,3.40
2019-02-07T20:06:03.288Z,3.40
2019-02-07T20:08:32.402Z,3.40
2019-02-07T20:11:01.497Z,3.40
2019-02-07T20:13:30.615Z,3.40
2019-02-07T20:16:02.967Z,3.30
2019-02-07T20:18:32.060Z,3.50
2019-02-07T20:21:01.729Z,3.40
2019-02-07T20:23:30.805Z,3.40
2019-02-07T20:26:00.152Z,3.30
2019-02-07T20:28:29.372Z,3.30
2019-02-07T20:30:58.746Z,3.30
2019-02-07T20:33:28.110Z,3.40
2019-02-07T20:35:57.197Z,3.40
2019-02-07T20:38:26.858Z,3.30
2019-02-07T20:40:56.276Z,3.20
2019-02-07T20:43:25.377Z,3.20
2019-02-07T20:45:54.736Z,3.20
2019-02-07T20:48:23.807Z,3.30
2019-02-07T20:50:52.920Z,3.30
2019-02-07T20:53:22.016Z,3.30
2019-02-07T20:55:51.647Z,3.20
2019-02-07T20:58:21.297Z,3.20
2019-02-07T21:00:50.393Z,3.20
2019-02-07T21:03:19.731Z,3.10
2019-02-07T21:05:49.071Z,3.10
2019-02-07T21:08:18.148Z,3.10
2019-02-07T21:10:47.586Z,3.10
2019-02-07T21:13:16.718Z,3.10
2019-02-07T21:15:46.131Z,3.10
2019-02-07T21:18:15.484Z,3.10
2019-02-07T21:20:44.617Z,3.10
2019-02-07T21:23:13.761Z,3.00
2019-02-07T21:25:45.333Z,3.00
2019-02-07T21:28:14.509Z,3.00
2019-02-07T21:30:43.609Z,3.00
2019-02-07T21:33:12.768Z,3.10
2019-02-07T21:35:42.314Z,3.10
2019-02-07T21:38:11.423Z,3.10
2019-02-07T21:40:40.559Z,3.10
2019-02-07T21:43:09.764Z,3.10
2019-02-07T21:45:38.928Z,3.10
2019-02-07T21:48:08.819Z,3.10
2019-02-07T21:50:38.323Z,3.00
2019-02-07T21:53:07.494Z,3.00
2019-02-07T21:55:37.634Z,3.10
2019-02-07T21:58:08.391Z,3.10
2019-02-07T22:00:43.048Z,3.10
2019-02-07T22:03:14.414Z,3.00
2019-02-07T22:05:43.669Z,3.00
2019-02-07T22:08:13.539Z,3.00
2019-02-07T22:10:42.689Z,3.00
2019-02-07T22:13:12.289Z,3.00
2019-02-07T22:15:41.393Z,2.90
2019-02-07T22:18:10.600Z,2.90
2019-02-07T22:20:39.718Z,2.90
2019-02-07T22:23:08.817Z,2.90
2019-02-07T22:25:37.941Z,2.90
2019-02-07T22:28:08.027Z,2.80
2019-02-07T22:30:37.939Z,2.90
2019-02-07T22:33:08.685Z,2.80
2019-02-07T22:35:38.043Z,2.80
2019-02-07T22:38:08.306Z,2.80
2019-02-07T22:40:37.705Z,2.80
2019-02-07T22:43:07.534Z,2.90
2019-02-07T22:45:37.221Z,2.90
2019-02-07T22:48:06.469Z,2.90
2019-02-07T22:50:36.088Z,2.90
2019-02-07T22:53:06.151Z,2.90
2019-02-07T22:55:35.488Z,2.80
2019-02-07T22:58:05.715Z,2.80
2019-02-07T23:00:39.616Z,2.90
2019-02-07T23:03:17.058Z,2.90
2019-02-07T23:05:46.501Z,2.90
2019-02-07T23:08:15.790Z,3.00
2019-02-07T23:10:45.797Z,3.00
2019-02-07T23:13:14.970Z,3.00
2019-02-07T23:15:44.090Z,3.00
2019-02-07T23:18:13.269Z,3.00
2019-02-07T23:20:42.356Z,3.10
2019-02-07T23:23:12.185Z,3.10
2019-02-07T23:25:42.232Z,3.20
2019-02-07T23:28:11.413Z,3.20
2019-02-07T23:30:40.981Z,3.10
2019-02-07T23:33:10.126Z,3.20
2019-02-07T23:35:39.479Z,3.20
2019-02-07T23:38:08.565Z,3.30
2019-02-07T23:40:38.262Z,3.30
2019-02-07T23:43:08.113Z,3.30
2019-02-07T23:45:37.702Z,3.20
2019-02-07T23:48:07.129Z,3.30
2019-02-07T23:50:36.497Z,3.40
2019-02-07T23:53:14.067Z,3.40
2019-02-07T23:55:36.546Z,3.30
2019-02-07T23:58:05.698Z,3.30
